Startpagina
METAR-TAF:

METAR-TAF

Vliegvelden :

Luchthaven Caïro Internationaal

Caïro, Egypte

breedte: 30-08N, lengte: 031-24E, hoogte: 64 m

Actueel weer

Dit bericht is 5 minuten geleden gemaakt, om 23:30 UTC
Wind 3 kt uit het noordnoordoosten
Temperatuur 30°C
Vochtigheid 31%
Druk 1009 hPa
Zicht 10 km of meer
geen wolken onder 1500 m en geen cumulonimbus

METAR: HECA 242330Z 02003KT CAVOK 30/11 Q1009 NOSIG

Tijdstip: 01:35 (23:35 UTC)

Verwachting

Dit bericht is 35 minuten geleden gemaakt, om 23:00 UTC
Verwachting geldig van 25 om 00 UTC tot 26 om 06 UTC
Wind 3 kt uit variabele richting
Zicht 10 km of meer
geen wolken onder 1500 m en geen cumulonimbus
Tijdelijke
van 25 om 00 UTC tot 25 om 10 UTC
Zicht: 6000 m
Tijdelijke
van 25 om 00 UTC tot 25 om 08 UTC
Zicht: 4000 m
Heiigheid
Wijzigt naar
van 25 om 10 UTC tot 25 om 12 UTC
Wind 8 kt uit het westen

TAF: HECA 242300Z 2500/2606 VRB03KT CAVOK TEMPO 2500/2510 6000 NSC TEMPO 2500/2508 4000 HZ BECMG 2510/2512 28008KT

Waarnemingen en weersverwachtingen van meer dan 4000 vliegvelden (METAR en TAF).

De beschikbare stations zijn de gele en rode punten op de kaart.

Ga met uw muis naar het station om de naam te zien.

Klik dan om waarnemingen en weersverwachtingen te zien.

kaart wijzigen: klik op de groene knoppen met een zwart kruis om in te zoomen, op de groene knop met een streepje om uit te zoomen of op de groene pijlen voor aangrenzende kaarten.


METAR-TAF: